createdAt,value
2023-09-15T00:01:35.555Z,12.30
2023-09-15T00:04:06.140Z,12.20
2023-09-15T00:06:34.148Z,12.30
2023-09-15T00:09:00.862Z,12.20
2023-09-15T00:11:40.626Z,12.10
2023-09-15T00:14:12.314Z,12.00
2023-09-15T00:16:44.174Z,11.90
2023-09-15T00:19:17.366Z,11.90
2023-09-15T00:21:45.437Z,11.90
2023-09-15T00:24:12.458Z,11.90
2023-09-15T00:26:40.594Z,11.90
2023-09-15T00:29:09.624Z,11.90
2023-09-15T00:31:37.086Z,11.70
2023-09-15T00:34:05.741Z,11.60
2023-09-15T00:36:32.834Z,12.20
2023-09-15T00:38:59.900Z,11.70
2023-09-15T00:41:27.558Z,11.70
2023-09-15T00:43:54.555Z,11.70
2023-09-15T00:46:21.547Z,11.60
2023-09-15T00:48:49.772Z,11.70
2023-09-15T00:51:17.466Z,11.70
2023-09-15T00:53:44.339Z,11.70
2023-09-15T00:56:11.183Z,11.70
2023-09-15T00:58:41.481Z,11.70
2023-09-15T01:01:09.596Z,11.60
2023-09-15T01:03:39.026Z,11.70
2023-09-15T01:06:07.516Z,11.50
2023-09-15T01:08:35.638Z,11.50
2023-09-15T01:11:05.656Z,11.50
2023-09-15T01:13:33.483Z,12.60
2023-09-15T01:16:03.374Z,11.50
2023-09-15T01:18:43.279Z,11.50
2023-09-15T01:21:35.449Z,11.20
2023-09-15T01:24:12.257Z,10.90
2023-09-15T01:27:00.657Z,10.90
2023-09-15T01:29:30.114Z,10.90
2023-09-15T01:31:58.118Z,10.80
2023-09-15T01:34:25.149Z,10.80
2023-09-15T01:36:55.330Z,10.70
2023-09-15T01:39:22.276Z,10.70
2023-09-15T01:41:49.075Z,10.60
2023-09-15T01:44:15.772Z,10.60
2023-09-15T01:46:42.564Z,10.60
2023-09-15T01:49:09.466Z,10.80
2023-09-15T01:51:36.310Z,10.80
2023-09-15T01:54:03.335Z,10.70
2023-09-15T01:56:30.918Z,10.80
2023-09-15T01:58:57.659Z,10.80
2023-09-15T02:01:24.918Z,10.70
2023-09-15T02:03:51.772Z,10.70
2023-09-15T02:06:18.577Z,10.70
2023-09-15T02:08:46.373Z,10.80
2023-09-15T02:11:13.508Z,10.70
2023-09-15T02:13:40.862Z,10.70
2023-09-15T02:16:07.635Z,10.60
2023-09-15T02:18:34.327Z,10.40
2023-09-15T02:21:01.918Z,10.40
2023-09-15T02:23:28.561Z,10.50
2023-09-15T02:25:55.312Z,10.60
2023-09-15T02:28:22.018Z,10.60
2023-09-15T02:30:49.305Z,10.60
2023-09-15T02:33:16.335Z,10.70
2023-09-15T02:35:43.059Z,10.60
2023-09-15T02:38:09.759Z,10.60
2023-09-15T02:40:36.432Z,10.50
2023-09-15T02:43:03.709Z,10.50
2023-09-15T02:45:30.367Z,10.50
2023-09-15T02:47:57.118Z,10.40
2023-09-15T02:50:24.105Z,10.40
2023-09-15T02:52:50.750Z,10.50
2023-09-15T02:55:17.485Z,10.50
2023-09-15T02:57:44.244Z,10.60
2023-09-15T03:00:15.291Z,10.60
2023-09-15T03:02:42.183Z,10.60
2023-09-15T03:05:09.477Z,10.60
2023-09-15T03:07:40.640Z,10.50
2023-09-15T03:10:08.780Z,10.40
2023-09-15T03:12:35.954Z,10.30
2023-09-15T03:15:07.078Z,10.30
2023-09-15T03:17:34.322Z,10.20
2023-09-15T03:20:01.333Z,10.20
2023-09-15T03:22:28.759Z,9.50
2023-09-15T03:24:58.337Z,10.30
2023-09-15T03:27:25.012Z,10.30
2023-09-15T03:29:51.732Z,10.40
2023-09-15T03:32:18.391Z,10.40
2023-09-15T03:34:45.120Z,10.40
2023-09-15T03:37:14.177Z,10.40
2023-09-15T03:39:41.289Z,10.50
2023-09-15T03:42:07.962Z,10.50
2023-09-15T03:44:34.638Z,10.50
2023-09-15T03:47:01.885Z,10.60
2023-09-15T03:49:28.875Z,10.60
2023-09-15T03:51:55.755Z,10.60
2023-09-15T03:54:22.547Z,10.50
2023-09-15T03:56:49.152Z,10.50
2023-09-15T03:59:15.818Z,10.60
2023-09-15T04:01:42.754Z,10.60
2023-09-15T04:04:09.600Z,10.60
2023-09-15T04:06:37.021Z,10.50
2023-09-15T04:09:11.577Z,10.40
2023-09-15T04:11:38.909Z,10.40
2023-09-15T04:14:06.055Z,10.40
2023-09-15T04:16:33.159Z,10.30
2023-09-15T04:19:00.067Z,10.40
2023-09-15T04:21:26.801Z,10.40
2023-09-15T04:23:53.522Z,10.40
2023-09-15T04:26:20.839Z,10.40
2023-09-15T04:28:48.025Z,10.40
2023-09-15T04:31:15.377Z,10.30
2023-09-15T04:33:42.134Z,10.20
2023-09-15T04:36:09.322Z,10.20
2023-09-15T04:38:36.038Z,10.10
2023-09-15T04:41:02.993Z,10.00
2023-09-15T04:43:31.393Z,9.90
2023-09-15T04:45:58.767Z,9.90
2023-09-15T04:48:25.548Z,9.90
2023-09-15T04:50:52.387Z,9.90
2023-09-15T04:53:21.627Z,9.90
2023-09-15T04:55:51.915Z,10.00
2023-09-15T04:58:18.729Z,10.10
2023-09-15T05:00:45.635Z,10.20
2023-09-15T05:03:13.291Z,10.20
2023-09-15T05:05:40.218Z,10.20
2023-09-15T05:08:07.054Z,10.30
2023-09-15T05:10:33.928Z,10.40
2023-09-15T05:13:02.018Z,10.40
2023-09-15T05:15:29.751Z,10.50
2023-09-15T05:17:56.545Z,10.60
2023-09-15T05:20:23.309Z,11.00
2023-09-15T05:22:50.018Z,10.70
2023-09-15T05:25:16.717Z,10.70
2023-09-15T05:27:44.031Z,10.80
2023-09-15T05:30:13.744Z,10.80
2023-09-15T05:32:41.087Z,10.80
2023-09-15T05:35:09.818Z,10.90
2023-09-15T05:37:36.529Z,10.90
2023-09-15T05:40:04.177Z,10.90
2023-09-15T05:42:30.832Z,10.80
2023-09-15T05:44:57.690Z,10.90
2023-09-15T05:47:24.757Z,10.90
2023-09-15T05:49:51.409Z,11.40
2023-09-15T05:52:18.244Z,11.00
2023-09-15T05:54:45.340Z,11.00
2023-09-15T05:57:12.059Z,11.10
2023-09-15T05:59:38.706Z,11.10
2023-09-15T06:02:05.828Z,11.20
2023-09-15T06:04:32.744Z,11.30
2023-09-15T06:06:59.455Z,11.30
2023-09-15T06:09:26.144Z,11.40
2023-09-15T06:11:53.159Z,11.40
2023-09-15T06:14:19.905Z,11.80
2023-09-15T06:16:46.622Z,11.50
2023-09-15T06:19:14.286Z,11.50
2023-09-15T06:21:41.860Z,11.60
2023-09-15T06:24:08.631Z,11.70
2023-09-15T06:26:35.579Z,11.80
2023-09-15T06:29:02.386Z,12.00
2023-09-15T06:31:29.340Z,12.00
2023-09-15T06:33:56.628Z,12.10
2023-09-15T06:36:23.758Z,12.30
2023-09-15T06:38:51.209Z,12.60
2023-09-15T06:41:20.612Z,12.50
2023-09-15T06:43:47.350Z,12.60
2023-09-15T06:46:14.448Z,12.70
2023-09-15T06:48:41.131Z,12.90
2023-09-15T06:51:08.747Z,12.90
2023-09-15T06:53:35.359Z,13.10
2023-09-15T06:56:02.175Z,13.20
2023-09-15T06:58:28.979Z,13.30
2023-09-15T07:00:56.556Z,13.50
2023-09-15T07:03:25.299Z,13.50
2023-09-15T07:05:52.436Z,13.70
2023-09-15T07:08:19.261Z,13.80
2023-09-15T07:10:46.262Z,14.00
2023-09-15T07:13:13.612Z,14.00
2023-09-15T07:15:40.416Z,14.10
2023-09-15T07:18:08.312Z,14.20
2023-09-15T07:20:35.127Z,14.40
2023-09-15T07:23:01.843Z,14.50
2023-09-15T07:25:28.646Z,14.60
2023-09-15T07:27:55.520Z,14.70
2023-09-15T07:30:22.674Z,14.80
2023-09-15T07:32:49.501Z,15.20
2023-09-15T07:35:16.565Z,15.10
2023-09-15T07:37:43.731Z,15.20
2023-09-15T07:40:10.696Z,15.30
2023-09-15T07:42:37.845Z,15.40
2023-09-15T07:45:04.795Z,15.50
2023-09-15T07:47:31.988Z,15.60
2023-09-15T07:49:59.379Z,15.90
2023-09-15T07:52:27.528Z,15.90
2023-09-15T07:54:54.623Z,16.00
2023-09-15T07:57:21.457Z,16.10
2023-09-15T07:59:49.573Z,16.20
2023-09-15T08:02:19.554Z,16.40
2023-09-15T08:04:46.656Z,16.50
2023-09-15T08:07:13.442Z,16.80
2023-09-15T08:09:40.162Z,16.60
2023-09-15T08:12:07.431Z,16.80
2023-09-15T08:14:34.128Z,16.90
2023-09-15T08:17:01.124Z,16.90
2023-09-15T08:19:28.829Z,17.00
2023-09-15T08:21:55.897Z,17.10
2023-09-15T08:24:22.583Z,17.20
2023-09-15T08:26:49.305Z,17.40
2023-09-15T08:29:16.139Z,17.30
2023-09-15T08:31:42.968Z,17.40
2023-09-15T08:34:09.776Z,17.50
2023-09-15T08:36:36.873Z,17.60
2023-09-15T08:39:03.915Z,18.00
2023-09-15T08:41:32.005Z,17.70
2023-09-15T08:43:58.932Z,17.80
2023-09-15T08:46:28.825Z,17.90
2023-09-15T08:48:58.746Z,18.00
2023-09-15T08:51:26.697Z,18.00
2023-09-15T08:53:57.483Z,18.20
2023-09-15T08:56:24.715Z,18.10
2023-09-15T08:58:51.429Z,18.10
2023-09-15T09:01:19.787Z,20.10
2023-09-15T09:03:47.206Z,18.30
2023-09-15T09:06:15.702Z,18.40
2023-09-15T09:08:43.840Z,18.50
2023-09-15T09:11:10.605Z,18.60
2023-09-15T09:13:43.571Z,18.70
2023-09-15T09:16:12.105Z,18.80
2023-09-15T09:18:38.892Z,18.90
2023-09-15T09:21:05.673Z,19.00
2023-09-15T09:23:32.718Z,19.10
2023-09-15T09:26:00.961Z,19.10
2023-09-15T09:28:27.990Z,19.10
2023-09-15T09:30:57.972Z,19.40
2023-09-15T09:33:24.690Z,19.30
2023-09-15T09:35:51.448Z,19.40
2023-09-15T09:38:18.092Z,19.40
2023-09-15T09:40:45.700Z,19.60
2023-09-15T09:43:17.225Z,20.30
2023-09-15T09:45:48.694Z,19.80
2023-09-15T09:48:15.944Z,20.00
2023-09-15T09:50:42.600Z,20.10
2023-09-15T09:53:10.291Z,20.30
2023-09-15T09:55:37.267Z,20.40
2023-09-15T09:58:06.176Z,20.50
2023-09-15T10:00:34.523Z,20.60
2023-09-15T10:03:01.550Z,20.70
2023-09-15T10:05:28.369Z,22.20
2023-09-15T10:07:56.672Z,20.90
2023-09-15T10:10:24.816Z,20.90
2023-09-15T10:12:51.979Z,21.00
2023-09-15T10:15:18.660Z,21.00
2023-09-15T10:17:45.889Z,21.10
2023-09-15T10:20:12.597Z,21.20
2023-09-15T10:22:39.839Z,21.40
2023-09-15T10:25:06.839Z,21.50
2023-09-15T10:27:34.208Z,21.60
2023-09-15T10:30:05.886Z,21.60
2023-09-15T10:32:37.351Z,21.60
2023-09-15T10:35:04.616Z,21.70
2023-09-15T10:37:31.261Z,21.70
2023-09-15T10:39:59.678Z,22.40
2023-09-15T10:42:27.638Z,21.80
2023-09-15T10:44:54.566Z,22.60
2023-09-15T10:47:22.043Z,21.80
2023-09-15T10:49:55.414Z,21.80
2023-09-15T10:52:37.137Z,21.90
2023-09-15T10:55:04.395Z,21.90
2023-09-15T10:57:34.700Z,22.10
2023-09-15T11:00:01.885Z,22.00
2023-09-15T11:02:30.048Z,22.10
2023-09-15T11:04:56.896Z,22.10
2023-09-15T11:07:24.394Z,22.10
2023-09-15T11:09:51.260Z,22.30
2023-09-15T11:12:18.039Z,22.40
2023-09-15T11:14:44.725Z,22.50
2023-09-15T11:17:11.484Z,22.40
2023-09-15T11:19:39.532Z,22.30
2023-09-15T11:22:06.229Z,22.20
2023-09-15T11:24:34.291Z,22.20
2023-09-15T11:27:02.046Z,22.30
2023-09-15T11:29:31.114Z,22.40
2023-09-15T11:31:58.666Z,22.40
2023-09-15T11:34:25.853Z,22.40
2023-09-15T11:36:57.587Z,22.30
2023-09-15T11:39:24.920Z,22.40
2023-09-15T11:41:54.865Z,22.40
2023-09-15T11:44:22.392Z,22.40
2023-09-15T11:46:52.651Z,22.40
2023-09-15T11:49:20.328Z,22.50
2023-09-15T11:51:47.774Z,22.70
2023-09-15T11:54:14.529Z,22.70
2023-09-15T11:56:41.335Z,22.70
2023-09-15T11:59:08.172Z,22.80
2023-09-15T12:01:35.972Z,22.80
2023-09-15T12:04:03.323Z,22.70
2023-09-15T12:06:30.295Z,22.70
2023-09-15T12:08:57.083Z,23.60
2023-09-15T12:11:24.245Z,22.80
2023-09-15T12:13:55.927Z,22.80
2023-09-15T12:16:26.185Z,22.90
2023-09-15T12:18:53.222Z,24.10
2023-09-15T12:21:25.769Z,23.00
2023-09-15T12:23:55.291Z,23.10
2023-09-15T12:26:26.602Z,23.20
2023-09-15T12:28:56.743Z,23.30
2023-09-15T12:31:23.524Z,23.20
2023-09-15T12:33:54.563Z,23.20
2023-09-15T12:36:22.860Z,23.20
2023-09-15T12:38:49.949Z,23.20
2023-09-15T12:41:19.632Z,23.30
2023-09-15T12:43:46.977Z,23.30
2023-09-15T12:46:14.104Z,23.40
2023-09-15T12:48:42.226Z,23.40
2023-09-15T12:51:09.001Z,23.30
2023-09-15T12:53:35.715Z,23.50
2023-09-15T12:56:02.357Z,23.40
2023-09-15T12:58:29.238Z,23.50
2023-09-15T13:00:56.786Z,23.50
2023-09-15T13:03:27.148Z,22.10
2023-09-15T13:05:53.950Z,23.50
2023-09-15T13:08:20.779Z,23.50
2023-09-15T13:10:47.602Z,23.50
2023-09-15T13:13:16.009Z,21.70
2023-09-15T13:15:42.989Z,23.50
2023-09-15T13:18:10.067Z,23.00
2023-09-15T13:20:36.948Z,23.50
2023-09-15T13:23:03.944Z,23.60
2023-09-15T13:25:30.823Z,23.50
2023-09-15T13:27:57.668Z,23.50
2023-09-15T13:30:24.742Z,23.50
2023-09-15T13:32:51.869Z,23.60
2023-09-15T13:35:18.722Z,23.70
2023-09-15T13:37:45.469Z,23.50
2023-09-15T13:40:12.602Z,23.60
2023-09-15T13:42:39.475Z,23.80
2023-09-15T13:45:09.084Z,23.70
2023-09-15T13:47:37.145Z,23.70
2023-09-15T13:50:07.144Z,23.60
2023-09-15T13:52:34.138Z,23.70
2023-09-15T13:55:01.327Z,23.50
2023-09-15T13:57:29.855Z,23.70
2023-09-15T13:59:57.607Z,23.70
2023-09-15T14:02:27.975Z,23.70
2023-09-15T14:04:55.905Z,23.90
2023-09-15T14:07:22.993Z,23.90
2023-09-15T14:09:57.482Z,24.00
2023-09-15T14:12:24.275Z,24.00
2023-09-15T14:14:51.052Z,24.00
2023-09-15T14:17:17.964Z,23.90
2023-09-15T14:19:44.654Z,23.80
2023-09-15T14:22:11.680Z,23.80
2023-09-15T14:24:38.477Z,24.30
2023-09-15T14:27:05.533Z,25.00
2023-09-15T14:29:33.193Z,23.80
2023-09-15T14:32:01.636Z,23.80
2023-09-15T14:34:28.795Z,23.70
2023-09-15T14:36:56.310Z,24.70
2023-09-15T14:39:24.654Z,23.90
2023-09-15T14:41:53.502Z,22.70
2023-09-15T14:44:21.354Z,23.90
2023-09-15T14:46:48.632Z,23.80
2023-09-15T14:49:15.990Z,23.60
2023-09-15T14:51:43.035Z,23.60
2023-09-15T14:54:10.269Z,23.70
2023-09-15T14:56:37.328Z,23.60
2023-09-15T14:59:04.163Z,23.50
2023-09-15T15:01:30.972Z,23.50
2023-09-15T15:03:57.927Z,23.50
2023-09-15T15:06:24.596Z,23.50
2023-09-15T15:08:51.818Z,23.50
2023-09-15T15:11:18.702Z,23.50
2023-09-15T15:13:46.611Z,23.40
2023-09-15T15:16:17.011Z,25.50
2023-09-15T15:18:46.571Z,23.40
2023-09-15T15:21:13.785Z,23.30
2023-09-15T15:23:40.759Z,24.30
2023-09-15T15:26:08.186Z,23.30
2023-09-15T15:28:36.143Z,23.40
2023-09-15T15:31:03.007Z,23.50
2023-09-15T15:33:30.019Z,23.50
2023-09-15T15:36:00.761Z,23.50
2023-09-15T15:38:28.559Z,23.40
2023-09-15T15:40:59.816Z,23.90
2023-09-15T15:43:28.162Z,23.30
2023-09-15T15:45:56.510Z,23.40
2023-09-15T15:48:23.827Z,23.90
2023-09-15T15:50:51.294Z,23.50
2023-09-15T15:53:18.036Z,23.50
2023-09-15T15:55:44.740Z,23.60
2023-09-15T15:58:13.522Z,23.50
2023-09-15T16:00:40.556Z,23.40
2023-09-15T16:03:07.834Z,23.60
2023-09-15T16:05:34.834Z,23.50
2023-09-15T16:08:02.021Z,23.40
2023-09-15T16:10:29.259Z,23.40
2023-09-15T16:12:57.788Z,23.30
2023-09-15T16:15:24.764Z,23.30
2023-09-15T16:17:55.025Z,23.30
2023-09-15T16:20:22.199Z,23.30
2023-09-15T16:22:49.698Z,23.30
2023-09-15T16:25:17.474Z,21.80
2023-09-15T16:27:44.196Z,23.10
2023-09-15T16:30:11.367Z,23.10
2023-09-15T16:32:38.747Z,23.10
2023-09-15T16:35:05.703Z,23.30
2023-09-15T16:37:32.684Z,22.90
2023-09-15T16:39:59.601Z,22.80
2023-09-15T16:42:26.361Z,22.70
2023-09-15T16:44:56.985Z,22.60
2023-09-15T16:47:28.590Z,22.50
2023-09-15T16:49:55.691Z,22.40
2023-09-15T16:52:22.399Z,23.00
2023-09-15T16:54:49.194Z,23.10
2023-09-15T16:57:16.339Z,22.00
2023-09-15T16:59:43.007Z,21.30
2023-09-15T17:02:10.030Z,21.80
2023-09-15T17:04:36.720Z,21.80
2023-09-15T17:07:03.809Z,21.80
2023-09-15T17:09:30.462Z,21.80
2023-09-15T17:11:57.188Z,21.50
2023-09-15T17:14:24.223Z,21.60
2023-09-15T17:16:50.961Z,21.40
2023-09-15T17:19:18.096Z,21.30
2023-09-15T17:21:49.118Z,22.70
2023-09-15T17:24:18.135Z,21.40
2023-09-15T17:26:48.688Z,21.00
2023-09-15T17:29:15.519Z,21.00
2023-09-15T17:31:42.494Z,20.90
2023-09-15T17:34:11.580Z,21.30
2023-09-15T17:36:38.971Z,21.20
2023-09-15T17:39:06.256Z,22.50
2023-09-15T17:41:33.327Z,20.60
2023-09-15T17:44:00.232Z,20.50
2023-09-15T17:46:27.480Z,20.50
2023-09-15T17:48:56.011Z,20.40
2023-09-15T17:51:22.829Z,20.40
2023-09-15T17:53:50.188Z,20.30
2023-09-15T17:56:17.118Z,22.00
2023-09-15T17:58:43.958Z,20.10
2023-09-15T18:01:11.127Z,20.00
2023-09-15T18:03:38.314Z,19.90
2023-09-15T18:06:08.846Z,19.90
2023-09-15T18:08:36.056Z,19.80
2023-09-15T18:11:02.781Z,20.60
2023-09-15T18:13:29.581Z,19.60
2023-09-15T18:15:56.722Z,19.60
2023-09-15T18:18:23.517Z,19.50
2023-09-15T18:20:50.389Z,19.40
2023-09-15T18:23:18.528Z,19.40
2023-09-15T18:25:45.601Z,19.30
2023-09-15T18:28:12.957Z,19.30
2023-09-15T18:30:40.242Z,19.20
2023-09-15T18:33:07.702Z,19.60
2023-09-15T18:35:34.833Z,20.20
2023-09-15T18:38:01.651Z,19.10
2023-09-15T18:40:28.373Z,19.30
2023-09-15T18:42:55.092Z,18.90
2023-09-15T18:45:22.377Z,18.90
2023-09-15T18:47:49.508Z,18.80
2023-09-15T18:50:16.275Z,18.80
2023-09-15T18:52:42.943Z,18.70
2023-09-15T18:55:10.427Z,18.80
2023-09-15T18:57:38.982Z,18.60
2023-09-15T19:00:09.625Z,18.60
2023-09-15T19:02:37.969Z,18.60
2023-09-15T19:05:05.237Z,18.60
2023-09-15T19:07:31.932Z,18.50
2023-09-15T19:10:00.985Z,18.70
2023-09-15T19:12:27.754Z,18.40
2023-09-15T19:14:54.452Z,18.30
2023-09-15T19:17:21.087Z,18.20
2023-09-15T19:19:47.932Z,18.40
2023-09-15T19:22:14.534Z,18.10
2023-09-15T19:24:41.318Z,18.00
2023-09-15T19:27:08.014Z,17.90
2023-09-15T19:29:34.665Z,17.80
2023-09-15T19:32:01.283Z,17.80
2023-09-15T19:34:27.946Z,17.70
2023-09-15T19:36:54.712Z,18.50
2023-09-15T19:39:21.421Z,17.50
2023-09-15T19:41:48.175Z,17.80
2023-09-15T19:44:15.351Z,17.50
2023-09-15T19:46:42.288Z,17.60
2023-09-15T19:49:08.994Z,17.60
2023-09-15T19:51:35.879Z,17.60
2023-09-15T19:54:02.686Z,17.60
2023-09-15T19:56:29.333Z,17.60
2023-09-15T19:58:56.059Z,17.90
2023-09-15T20:01:22.843Z,17.60
2023-09-15T20:03:49.614Z,17.60
2023-09-15T20:06:16.353Z,17.50
2023-09-15T20:08:43.020Z,17.40
2023-09-15T20:11:09.686Z,17.20
2023-09-15T20:13:36.405Z,17.10
2023-09-15T20:16:13.912Z,17.10
2023-09-15T20:18:40.592Z,17.60
2023-09-15T20:21:07.373Z,17.00
2023-09-15T20:23:34.178Z,17.00
2023-09-15T20:26:01.402Z,17.00
2023-09-15T20:28:28.127Z,17.00
2023-09-15T20:30:54.883Z,17.00
2023-09-15T20:33:22.439Z,17.00
2023-09-15T20:35:49.375Z,16.80
2023-09-15T20:38:16.092Z,16.70
2023-09-15T20:40:44.531Z,16.70
2023-09-15T20:43:11.246Z,16.60
2023-09-15T20:45:37.980Z,16.50
2023-09-15T20:48:05.083Z,16.40
2023-09-15T20:50:32.511Z,16.20
2023-09-15T20:52:59.141Z,16.00
2023-09-15T20:55:26.609Z,15.90
2023-09-15T20:57:53.339Z,15.90
2023-09-15T21:00:20.293Z,15.70
2023-09-15T21:02:47.024Z,15.70
2023-09-15T21:05:15.957Z,16.40
2023-09-15T21:07:43.265Z,15.70
2023-09-15T21:10:10.056Z,16.80
2023-09-15T21:12:37.528Z,15.60
2023-09-15T21:15:05.633Z,15.50
2023-09-15T21:17:33.169Z,15.30
2023-09-15T21:19:59.831Z,15.40
2023-09-15T21:22:26.482Z,15.10
2023-09-15T21:24:53.281Z,15.50
2023-09-15T21:27:20.190Z,15.00
2023-09-15T21:29:47.938Z,16.00
2023-09-15T21:32:15.666Z,15.00
2023-09-15T21:34:43.058Z,15.50
2023-09-15T21:37:10.196Z,15.00
2023-09-15T21:39:36.931Z,15.00
2023-09-15T21:42:04.228Z,15.00
2023-09-15T21:44:31.330Z,15.00
2023-09-15T21:46:58.075Z,15.00
2023-09-15T21:49:24.688Z,15.50
2023-09-15T21:51:51.371Z,15.10
2023-09-15T21:54:18.084Z,15.10
2023-09-15T21:56:44.725Z,15.10
2023-09-15T21:59:11.397Z,15.00
2023-09-15T22:01:38.327Z,14.80
2023-09-15T22:04:05.086Z,14.70
2023-09-15T22:06:31.829Z,14.60
2023-09-15T22:08:59.598Z,14.60
2023-09-15T22:11:26.322Z,14.60
2023-09-15T22:13:53.035Z,14.60
2023-09-15T22:16:19.901Z,14.60
2023-09-15T22:18:46.983Z,14.60
2023-09-15T22:21:13.857Z,14.60
2023-09-15T22:23:40.693Z,15.40
2023-09-15T22:26:07.997Z,14.50
2023-09-15T22:28:35.848Z,14.60
2023-09-15T22:31:02.802Z,14.80
2023-09-15T22:33:30.853Z,14.80
2023-09-15T22:35:57.696Z,15.90
2023-09-15T22:38:24.408Z,15.50
2023-09-15T22:40:54.144Z,16.60
2023-09-15T22:43:25.059Z,15.90
2023-09-15T22:45:54.182Z,15.10
2023-09-15T22:48:21.156Z,15.10
2023-09-15T22:50:47.817Z,15.70
2023-09-15T22:53:15.515Z,15.50
2023-09-15T22:55:42.176Z,15.80
2023-09-15T22:58:09.424Z,14.80
2023-09-15T23:00:36.113Z,14.70
2023-09-15T23:03:04.628Z,14.80
2023-09-15T23:05:31.362Z,14.60
2023-09-15T23:07:58.008Z,15.20
2023-09-15T23:10:24.961Z,14.60
2023-09-15T23:12:51.618Z,14.50
2023-09-15T23:15:18.320Z,16.00
2023-09-15T23:17:44.970Z,15.10
2023-09-15T23:20:11.885Z,14.40
2023-09-15T23:22:38.642Z,14.30
2023-09-15T23:25:06.055Z,14.70
2023-09-15T23:27:35.220Z,14.10
2023-09-15T23:30:02.446Z,15.10
2023-09-15T23:32:29.286Z,14.20
2023-09-15T23:34:55.973Z,14.40
2023-09-15T23:37:22.603Z,13.80
2023-09-15T23:39:49.562Z,13.80
2023-09-15T23:42:16.361Z,13.80
2023-09-15T23:44:43.099Z,13.80
2023-09-15T23:47:12.347Z,14.50
2023-09-15T23:49:39.101Z,13.90
2023-09-15T23:52:07.118Z,13.90
2023-09-15T23:54:34.137Z,13.90
2023-09-15T23:57:00.947Z,14.00
2023-09-15T23:59:27.587Z,14.00
